createdAt,value
2023-03-02T00:01:51.508Z,80.00
2023-03-02T00:04:31.919Z,80.00
2023-03-02T00:07:04.273Z,80.00
2023-03-02T00:09:32.565Z,80.00
2023-03-02T00:12:01.136Z,80.10
2023-03-02T00:14:28.414Z,80.20
2023-03-02T00:16:56.022Z,80.10
2023-03-02T00:19:28.450Z,80.20
2023-03-02T00:21:55.666Z,80.30
2023-03-02T00:24:23.096Z,80.20
2023-03-02T00:26:50.814Z,80.30
2023-03-02T00:29:18.558Z,80.30
2023-03-02T00:31:46.211Z,80.10
2023-03-02T00:34:14.014Z,80.10
2023-03-02T00:36:41.702Z,80.10
2023-03-02T00:39:09.106Z,80.10
2023-03-02T00:41:36.379Z,80.10
2023-03-02T00:44:10.909Z,80.20
2023-03-02T00:46:38.381Z,80.20
2023-03-02T00:49:07.852Z,80.20
2023-03-02T00:51:35.384Z,80.30
2023-03-02T00:54:04.668Z,80.20
2023-03-02T00:56:32.828Z,80.00
2023-03-02T00:59:07.504Z,80.20
2023-03-02T01:01:34.913Z,80.20
2023-03-02T01:04:02.299Z,80.30
2023-03-02T01:06:29.597Z,80.20
2023-03-02T01:08:56.912Z,80.30
2023-03-02T01:11:24.239Z,80.20
2023-03-02T01:13:51.580Z,80.10
2023-03-02T01:16:18.856Z,80.10
2023-03-02T01:18:48.171Z,80.10
2023-03-02T01:21:22.377Z,80.00
2023-03-02T01:23:55.750Z,80.00
2023-03-02T01:26:25.090Z,79.90
2023-03-02T01:28:55.920Z,79.70
2023-03-02T01:31:23.592Z,79.80
2023-03-02T01:33:54.120Z,79.80
2023-03-02T01:36:23.051Z,79.70
2023-03-02T01:38:52.790Z,79.40
2023-03-02T01:41:23.084Z,79.40
2023-03-02T01:43:53.173Z,79.20
2023-03-02T01:46:26.766Z,79.30
2023-03-02T01:49:04.159Z,79.20
2023-03-02T01:51:40.956Z,79.10
2023-03-02T01:54:17.469Z,79.10
2023-03-02T01:56:46.465Z,79.00
2023-03-02T01:59:16.760Z,78.90
2023-03-02T02:01:47.661Z,78.90
2023-03-02T02:04:14.970Z,78.80
2023-03-02T02:06:51.212Z,78.90
2023-03-02T02:09:21.017Z,78.80
2023-03-02T02:11:48.982Z,78.80
2023-03-02T02:14:16.302Z,78.70
2023-03-02T02:16:46.677Z,78.80
2023-03-02T02:19:38.790Z,78.60
2023-03-02T02:22:06.191Z,78.70
2023-03-02T02:24:58.700Z,78.80
2023-03-02T02:27:30.406Z,78.80
2023-03-02T02:29:59.040Z,78.80
2023-03-02T02:32:34.136Z,78.90
2023-03-02T02:35:24.584Z,78.90
2023-03-02T02:37:55.714Z,79.00
2023-03-02T02:40:38.858Z,78.90
2023-03-02T02:43:07.467Z,79.00
2023-03-02T02:45:36.231Z,78.90
2023-03-02T02:48:03.842Z,79.00
2023-03-02T02:50:34.399Z,79.10
2023-03-02T02:53:07.393Z,79.20
2023-03-02T02:55:35.676Z,79.30
2023-03-02T02:58:10.233Z,79.30
2023-03-02T03:00:38.374Z,79.30
2023-03-02T03:03:29.357Z,79.40
2023-03-02T03:05:59.035Z,79.60
2023-03-02T03:08:52.376Z,79.60
2023-03-02T03:11:26.931Z,79.70
2023-03-02T03:14:13.384Z,79.70
2023-03-02T03:16:43.071Z,79.60
2023-03-02T03:19:25.829Z,79.70
2023-03-02T03:21:56.030Z,79.60
2023-03-02T03:24:23.932Z,79.70
2023-03-02T03:26:51.870Z,79.60
2023-03-02T03:29:22.418Z,79.70
2023-03-02T03:31:52.418Z,79.90
2023-03-02T03:34:21.450Z,79.90
2023-03-02T03:36:48.757Z,79.90
2023-03-02T03:39:16.877Z,79.90
2023-03-02T03:41:45.233Z,80.10
2023-03-02T03:44:12.868Z,80.40
2023-03-02T03:46:40.156Z,80.40
2023-03-02T03:49:07.689Z,80.60
2023-03-02T03:51:35.680Z,80.80
2023-03-02T03:54:05.956Z,81.00
2023-03-02T03:56:37.036Z,81.10
2023-03-02T03:59:07.948Z,81.20
2023-03-02T04:01:40.770Z,81.20
2023-03-02T04:04:11.880Z,81.50
2023-03-02T04:06:39.526Z,81.50
2023-03-02T04:09:12.341Z,81.70
2023-03-02T04:11:42.070Z,81.60
2023-03-02T04:14:10.159Z,81.90
2023-03-02T04:16:38.710Z,82.00
2023-03-02T04:19:10.266Z,81.90
2023-03-02T04:21:43.474Z,82.10
2023-03-02T04:24:13.820Z,82.20
2023-03-02T04:26:42.928Z,82.00
2023-03-02T04:29:11.599Z,82.10
2023-03-02T04:31:41.899Z,82.10
2023-03-02T04:34:11.902Z,82.10
2023-03-02T04:36:40.183Z,82.20
2023-03-02T04:39:11.141Z,82.20
2023-03-02T04:41:38.273Z,82.20
2023-03-02T04:44:08.422Z,82.00
2023-03-02T04:46:36.347Z,81.80
2023-03-02T04:49:05.234Z,81.70
2023-03-02T04:51:35.602Z,81.60
2023-03-02T04:54:11.376Z,81.60
2023-03-02T04:56:38.666Z,81.60
2023-03-02T04:59:05.950Z,81.40
2023-03-02T05:01:33.142Z,81.30
2023-03-02T05:04:02.798Z,81.30
2023-03-02T05:06:34.017Z,81.10
2023-03-02T05:09:01.806Z,80.90
2023-03-02T05:11:29.134Z,80.80
2023-03-02T05:13:59.588Z,80.80
2023-03-02T05:16:33.015Z,80.80
2023-03-02T05:19:04.214Z,80.80
2023-03-02T05:21:35.596Z,80.70
2023-03-02T05:24:03.802Z,80.60
2023-03-02T05:26:33.282Z,80.50
2023-03-02T05:29:00.908Z,80.50
2023-03-02T05:31:35.439Z,80.40
2023-03-02T05:34:07.528Z,80.50
2023-03-02T05:36:35.799Z,80.30
2023-03-02T05:39:03.956Z,80.30
2023-03-02T05:41:31.383Z,80.30
2023-03-02T05:43:59.393Z,80.20
2023-03-02T05:46:27.097Z,80.10
2023-03-02T05:48:54.516Z,80.10
2023-03-02T05:51:28.116Z,80.00
2023-03-02T05:53:55.586Z,79.90
2023-03-02T05:56:23.038Z,79.70
2023-03-02T05:58:50.994Z,79.60
2023-03-02T06:01:20.856Z,79.60
2023-03-02T06:03:48.691Z,79.40
2023-03-02T06:06:16.635Z,79.20
2023-03-02T06:08:44.333Z,78.90
2023-03-02T06:11:12.404Z,78.60
2023-03-02T06:13:40.217Z,78.50
2023-03-02T06:16:08.414Z,78.20
2023-03-02T06:18:36.162Z,78.10
2023-03-02T06:21:04.595Z,78.00
2023-03-02T06:23:32.478Z,77.70
2023-03-02T06:26:01.074Z,77.40
2023-03-02T06:28:28.743Z,77.00
2023-03-02T06:30:57.381Z,77.00
2023-03-02T06:33:24.719Z,76.80
2023-03-02T06:35:55.275Z,76.20
2023-03-02T06:38:23.096Z,75.90
2023-03-02T06:40:50.473Z,75.90
2023-03-02T06:43:18.759Z,75.70
2023-03-02T06:45:46.103Z,75.50
2023-03-02T06:48:16.829Z,75.40
2023-03-02T06:50:44.064Z,75.10
2023-03-02T06:53:12.963Z,74.70
2023-03-02T06:55:46.292Z,74.70
2023-03-02T06:58:21.509Z,74.60
2023-03-02T07:01:17.826Z,74.50
2023-03-02T07:03:49.022Z,74.30
2023-03-02T07:06:16.973Z,74.20
2023-03-02T07:08:50.816Z,74.00
2023-03-02T07:11:23.950Z,73.70
2023-03-02T07:13:53.892Z,73.60
2023-03-02T07:16:37.168Z,73.50
2023-03-02T07:19:07.327Z,73.50
2023-03-02T07:21:38.053Z,73.40
2023-03-02T07:24:05.963Z,73.30
2023-03-02T07:26:36.518Z,73.10
2023-03-02T07:29:06.865Z,73.20
2023-03-02T07:31:35.908Z,73.20
2023-03-02T07:34:09.173Z,73.10
2023-03-02T07:36:36.864Z,73.10
2023-03-02T07:39:10.656Z,72.90
2023-03-02T07:42:14.046Z,72.90
2023-03-02T07:45:02.558Z,72.70
2023-03-02T07:47:43.900Z,72.30
2023-03-02T07:50:26.217Z,71.90
2023-03-02T07:53:29.050Z,71.70
2023-03-02T07:57:01.228Z,70.70
2023-03-02T08:03:16.885Z,65.80
2023-03-02T08:06:29.094Z,61.80
2023-03-02T08:09:02.447Z,57.40
2023-03-02T08:11:46.713Z,52.10
2023-03-02T08:14:47.735Z,48.10
2023-03-02T08:21:37.462Z,43.60
2023-03-02T08:29:10.245Z,40.00
2023-03-02T08:38:54.380Z,36.70
2023-03-02T08:45:09.207Z,35.60
2023-03-02T08:49:07.531Z,35.00
2023-03-02T08:55:02.624Z,34.70
2023-03-02T09:02:41.923Z,34.40
2023-03-02T09:32:39.837Z,34.20
2023-03-02T09:35:17.621Z,33.80
2023-03-02T09:37:52.999Z,33.80
2023-03-02T09:40:31.477Z,33.90
2023-03-02T09:43:36.756Z,34.00
2023-03-02T09:46:35.397Z,34.20
2023-03-02T09:49:55.898Z,34.30
2023-03-02T09:53:27.305Z,34.40
2023-03-02T09:56:41.399Z,34.40
2023-03-02T09:59:23.303Z,34.80
2023-03-02T10:02:39.672Z,35.10
2023-03-02T10:05:42.797Z,35.80
2023-03-02T10:12:09.337Z,38.60
2023-03-02T10:14:52.390Z,39.90
2023-03-02T10:17:48.117Z,41.40
2023-03-02T10:20:35.281Z,42.30
2023-03-02T10:23:25.292Z,42.60
2023-03-02T10:26:16.776Z,42.80
2023-03-02T10:29:07.959Z,43.00
2023-03-02T10:31:42.446Z,43.50
2023-03-02T10:34:16.588Z,43.80
2023-03-02T10:36:50.500Z,44.20
2023-03-02T10:39:20.311Z,44.70
2023-03-02T10:42:22.244Z,44.50
2023-03-02T10:44:56.115Z,44.20
2023-03-02T10:47:35.872Z,44.60
2023-03-02T10:50:03.643Z,45.20
2023-03-02T10:52:32.134Z,46.80
2023-03-02T10:55:37.038Z,47.70
2023-03-02T10:58:31.557Z,48.20
2023-03-02T11:01:22.370Z,48.60
2023-03-02T11:18:04.956Z,48.60
2023-03-02T11:20:38.798Z,46.10
2023-03-02T11:23:43.042Z,45.60
2023-03-02T11:27:45.528Z,45.70
2023-03-02T11:29:44.806Z,46.20
2023-03-02T11:32:28.116Z,46.30
2023-03-02T11:35:36.731Z,46.70
2023-03-02T11:41:42.865Z,48.30
2023-03-02T11:44:26.461Z,49.70
2023-03-02T11:47:36.747Z,50.00
2023-03-02T12:03:41.042Z,50.20
2023-03-02T12:07:37.877Z,50.50
2023-03-02T12:10:51.958Z,50.90
2023-03-02T12:13:43.897Z,51.20
2023-03-02T12:20:16.600Z,51.10
2023-03-02T12:23:01.173Z,51.30
2023-03-02T12:25:40.489Z,51.90
2023-03-02T12:28:54.771Z,52.30
2023-03-02T12:35:30.283Z,53.30
2023-03-02T12:38:24.057Z,53.50
2023-03-02T12:41:31.860Z,53.70
2023-03-02T12:47:34.286Z,54.00
2023-03-02T12:50:26.430Z,54.20
2023-03-02T12:53:16.957Z,54.50
2023-03-02T12:55:57.600Z,54.80
2023-03-02T12:59:01.361Z,54.60
2023-03-02T13:01:37.720Z,54.40
2023-03-02T13:04:28.226Z,54.80
2023-03-02T13:06:56.580Z,54.90
2023-03-02T13:09:47.765Z,54.90
2023-03-02T13:12:29.575Z,54.70
2023-03-02T13:15:05.627Z,54.50
2023-03-02T13:17:56.690Z,54.60
2023-03-02T13:20:45.438Z,54.70
2023-03-02T13:23:33.086Z,54.80
2023-03-02T13:26:07.489Z,54.80
2023-03-02T13:31:36.048Z,55.10
2023-03-02T13:37:44.823Z,55.30
2023-03-02T13:40:51.555Z,55.30
2023-03-02T13:43:33.481Z,55.40
2023-03-02T13:46:30.221Z,55.60
2023-03-02T13:49:10.757Z,55.60
2023-03-02T13:51:46.794Z,55.20
2023-03-02T13:54:25.816Z,54.90
2023-03-02T13:56:54.053Z,55.00
2023-03-02T13:59:23.141Z,54.90
2023-03-02T14:01:53.864Z,54.90
2023-03-02T14:04:40.508Z,54.90
2023-03-02T14:07:30.225Z,54.90
2023-03-02T14:10:08.276Z,55.00
2023-03-02T14:12:41.623Z,55.30
2023-03-02T14:15:34.957Z,55.20
2023-03-02T14:18:32.212Z,55.10
2023-03-02T14:21:06.822Z,55.10
2023-03-02T14:23:38.684Z,55.10
2023-03-02T14:26:34.474Z,54.90
2023-03-02T14:29:34.723Z,55.10
2023-03-02T14:32:09.629Z,55.10
2023-03-02T14:34:44.772Z,55.10
2023-03-02T14:37:26.315Z,55.50
2023-03-02T14:40:02.887Z,55.50
2023-03-02T14:42:30.796Z,55.70
2023-03-02T14:45:00.999Z,55.70
2023-03-02T14:47:30.176Z,55.80
2023-03-02T14:50:00.719Z,55.70
2023-03-02T14:52:39.983Z,55.60
2023-03-02T14:55:18.468Z,55.80
2023-03-02T14:57:57.712Z,55.50
2023-03-02T15:00:48.771Z,55.50
2023-03-02T15:03:26.072Z,55.20
2023-03-02T15:06:01.557Z,55.50
2023-03-02T15:08:34.087Z,55.60
2023-03-02T15:11:15.029Z,55.90
2023-03-02T15:14:16.280Z,55.70
2023-03-02T15:17:32.761Z,56.30
2023-03-02T15:23:21.283Z,56.40
2023-03-02T15:25:48.762Z,56.40
2023-03-02T15:28:18.162Z,56.80
2023-03-02T15:30:48.395Z,56.80
2023-03-02T15:33:17.540Z,57.10
2023-03-02T15:36:10.486Z,57.20
2023-03-02T15:38:38.780Z,57.30
2023-03-02T15:41:16.374Z,57.50
2023-03-02T15:43:57.667Z,57.80
2023-03-02T15:47:05.613Z,57.70
2023-03-02T15:49:42.489Z,57.90
2023-03-02T15:52:15.107Z,58.10
2023-03-02T15:55:05.480Z,58.10
2023-03-02T15:58:07.159Z,58.20
2023-03-02T16:03:36.037Z,58.60
2023-03-02T16:06:32.904Z,58.80
2023-03-02T16:09:11.744Z,59.00
2023-03-02T16:11:44.482Z,58.90
2023-03-02T16:14:16.151Z,58.60
2023-03-02T16:16:50.216Z,58.60
2023-03-02T16:19:32.151Z,58.50
2023-03-02T16:22:11.222Z,58.00
2023-03-02T16:24:41.868Z,57.50
2023-03-02T16:27:16.398Z,57.00
2023-03-02T16:29:46.189Z,56.70
2023-03-02T16:32:55.023Z,56.60
2023-03-02T16:35:23.986Z,56.90
2023-03-02T16:37:54.695Z,56.60
2023-03-02T16:40:34.774Z,56.80
2023-03-02T16:43:16.994Z,56.60
2023-03-02T16:45:49.450Z,56.70
2023-03-02T16:48:19.659Z,57.10
2023-03-02T16:51:00.171Z,57.30
2023-03-02T16:53:36.926Z,57.20
2023-03-02T16:56:05.016Z,57.30
2023-03-02T16:58:45.865Z,57.10
2023-03-02T17:01:47.105Z,57.40
2023-03-02T17:04:32.489Z,57.60
2023-03-02T17:07:03.695Z,57.70
2023-03-02T17:09:47.031Z,57.70
2023-03-02T17:12:33.342Z,57.80
2023-03-02T17:15:36.282Z,57.90
2023-03-02T17:18:14.742Z,57.90
2023-03-02T17:21:12.642Z,58.40
2023-03-02T17:24:12.770Z,58.60
2023-03-02T17:26:42.364Z,59.00
2023-03-02T17:29:35.834Z,59.60
2023-03-02T17:32:38.387Z,59.60
2023-03-02T17:38:24.623Z,60.70
2023-03-02T17:41:01.115Z,61.40
2023-03-02T17:43:35.160Z,61.60
2023-03-02T17:46:40.951Z,62.00
2023-03-02T17:49:16.408Z,62.50
2023-03-02T17:52:33.230Z,62.80
2023-03-02T17:55:10.048Z,63.20
2023-03-02T17:57:44.952Z,63.50
2023-03-02T18:00:25.868Z,63.60
2023-03-02T18:03:08.084Z,63.90
2023-03-02T18:06:05.092Z,64.30
2023-03-02T18:08:38.214Z,64.40
2023-03-02T18:11:06.389Z,64.60
2023-03-02T18:13:44.445Z,65.00
2023-03-02T18:16:17.525Z,65.20
2023-03-02T18:18:54.636Z,65.40
2023-03-02T18:21:24.293Z,65.90
2023-03-02T18:23:57.389Z,66.60
2023-03-02T18:26:27.637Z,66.80
2023-03-02T18:29:02.477Z,66.90
2023-03-02T18:31:31.706Z,67.40
2023-03-02T18:34:06.123Z,68.20
2023-03-02T18:36:45.623Z,68.20
2023-03-02T18:39:32.699Z,68.80
2023-03-02T18:42:10.525Z,68.40
2023-03-02T18:44:39.683Z,68.80
2023-03-02T18:47:28.490Z,69.30
2023-03-02T18:50:03.626Z,69.90
2023-03-02T18:52:33.666Z,70.00
2023-03-02T18:55:09.189Z,70.10
2023-03-02T18:57:39.654Z,70.20
2023-03-02T19:00:27.588Z,70.40
2023-03-02T19:03:24.649Z,70.60
2023-03-02T19:05:58.215Z,71.00
2023-03-02T19:08:26.494Z,71.20
2023-03-02T19:11:10.605Z,71.10
2023-03-02T19:13:49.923Z,71.60
2023-03-02T19:16:19.256Z,71.80
2023-03-02T19:18:49.634Z,71.90
2023-03-02T19:21:19.560Z,71.80
2023-03-02T19:23:50.002Z,72.10
2023-03-02T19:26:26.756Z,72.00
2023-03-02T19:29:01.282Z,72.20
2023-03-02T19:31:40.720Z,72.30
2023-03-02T19:34:08.471Z,72.20
2023-03-02T19:36:38.894Z,72.30
2023-03-02T19:39:10.870Z,72.40
2023-03-02T19:41:41.864Z,72.50
2023-03-02T19:44:15.045Z,72.40
2023-03-02T19:46:54.949Z,72.30
2023-03-02T19:49:25.138Z,72.20
2023-03-02T19:51:54.350Z,72.00
2023-03-02T19:54:24.251Z,72.00
2023-03-02T19:56:54.545Z,72.00
2023-03-02T19:59:24.710Z,71.80
2023-03-02T20:01:53.068Z,71.80
2023-03-02T20:04:20.339Z,71.60
2023-03-02T20:06:47.604Z,71.60
2023-03-02T20:09:19.638Z,71.40
2023-03-02T20:12:18.809Z,71.30
2023-03-02T20:14:51.354Z,71.30
2023-03-02T20:17:19.757Z,71.50
2023-03-02T20:19:49.845Z,71.30
2023-03-02T20:22:22.671Z,71.20
2023-03-02T20:24:50.068Z,71.40
2023-03-02T20:27:22.381Z,71.20
2023-03-02T20:29:52.969Z,71.60
2023-03-02T20:32:22.036Z,71.40
2023-03-02T20:34:57.234Z,71.50
2023-03-02T20:37:26.410Z,71.50
2023-03-02T20:39:54.171Z,71.80
2023-03-02T20:42:24.870Z,71.80
2023-03-02T20:44:56.752Z,72.10
2023-03-02T20:47:28.274Z,72.30
2023-03-02T20:49:56.037Z,72.60
2023-03-02T20:52:27.533Z,72.70
2023-03-02T20:54:55.456Z,73.10
2023-03-02T20:57:25.769Z,73.20
2023-03-02T21:00:00.480Z,73.40
2023-03-02T21:02:35.026Z,73.50
2023-03-02T21:05:03.196Z,73.60
2023-03-02T21:07:30.931Z,73.90
2023-03-02T21:09:58.647Z,74.30
2023-03-02T21:12:30.641Z,74.30
2023-03-02T21:14:59.502Z,74.50
2023-03-02T21:17:33.164Z,74.70
2023-03-02T21:20:06.623Z,74.90
2023-03-02T21:22:34.203Z,75.10
2023-03-02T21:25:08.718Z,75.20
2023-03-02T21:27:38.154Z,75.40
2023-03-02T21:30:08.316Z,75.30
2023-03-02T21:32:40.807Z,75.60
2023-03-02T21:35:28.212Z,75.70
2023-03-02T21:38:04.839Z,76.00
2023-03-02T21:40:35.942Z,76.00
2023-03-02T21:43:09.854Z,76.30
2023-03-02T21:45:40.565Z,76.50
2023-03-02T21:48:13.778Z,76.60
2023-03-02T21:50:43.704Z,77.10
2023-03-02T21:53:17.034Z,77.30
2023-03-02T21:55:57.360Z,77.30
2023-03-02T21:58:26.937Z,77.60
2023-03-02T22:00:54.133Z,77.50
2023-03-02T22:03:21.429Z,77.70
2023-03-02T22:05:48.999Z,77.70
2023-03-02T22:08:21.116Z,77.70
2023-03-02T22:10:52.492Z,78.20
2023-03-02T22:13:36.922Z,78.50
2023-03-02T22:16:16.975Z,78.50
2023-03-02T22:18:57.772Z,78.60
2023-03-02T22:21:47.504Z,78.80
2023-03-02T22:24:30.860Z,78.80
2023-03-02T22:27:23.402Z,79.00
2023-03-02T22:29:58.125Z,79.40
2023-03-02T22:32:39.137Z,79.30
2023-03-02T22:35:28.319Z,79.10
2023-03-02T22:38:12.705Z,79.60
2023-03-02T22:40:41.369Z,79.70
2023-03-02T22:43:11.802Z,79.60
2023-03-02T22:45:41.339Z,79.60
2023-03-02T22:48:25.721Z,79.60
2023-03-02T22:51:13.348Z,79.80
2023-03-02T22:53:47.132Z,79.60
2023-03-02T22:56:26.035Z,79.70
2023-03-02T22:58:59.199Z,79.80
2023-03-02T23:01:39.932Z,79.50
2023-03-02T23:04:17.838Z,79.50
2023-03-02T23:06:48.642Z,79.60
2023-03-02T23:09:23.869Z,79.80
2023-03-02T23:11:54.816Z,80.10
2023-03-02T23:14:49.413Z,79.90
2023-03-02T23:17:41.892Z,79.80
2023-03-02T23:20:12.626Z,79.90
2023-03-02T23:22:42.981Z,79.90
2023-03-02T23:25:10.593Z,79.80
2023-03-02T23:27:38.092Z,80.20
2023-03-02T23:30:13.084Z,80.20
2023-03-02T23:32:40.995Z,80.20
2023-03-02T23:35:13.682Z,80.10
2023-03-02T23:37:40.928Z,80.20
2023-03-02T23:40:11.678Z,80.20
2023-03-02T23:42:43.134Z,80.20
2023-03-02T23:45:12.930Z,80.30
2023-03-02T23:47:46.294Z,80.30
2023-03-02T23:50:25.158Z,80.10
2023-03-02T23:52:58.517Z,79.90
2023-03-02T23:55:31.096Z,79.60
2023-03-02T23:57:58.343Z,79.20
